< Typhoon 198412 1984 Season Typhoon 198414 >
Typhoon 198413 (KELLY)
General InformationTrack Information on Google MapsDetailed Wind InformationList of All Images || Disaster Info.ResourceGoogle EarthGE AnimationAtom FeedGeoJSON
Detalied Best Track (Time Zone = UTC)
Year Month Day Hour Lat. Long. Pressure (hPa) Wind (kt) Class Image Chart
1984 9 13 00 22.5 171.5 1004 0 2 Image Chart
1984 9 13 06 22.2 171.3 1002 0 2 Image Chart
1984 9 13 12 21.9 171.1 1000 0 2 Image Chart
1984 9 13 18 21.6 171.3 998 0 2 Image Chart
1984 9 14 00 21.5 171.8 996 35 3 Image Chart
1984 9 14 06 22.1 172.2 994 40 3 Image Chart
1984 9 14 12 23.0 172.3 992 45 3 Image Chart
1984 9 14 18 23.9 172.0 990 45 3 Image Chart
1984 9 15 00 24.8 171.8 985 45 3 Image Chart
1984 9 15 06 26.2 171.5 980 50 4 Image Chart
1984 9 15 12 27.6 171.0 975 50 4 Image Chart
1984 9 15 18 29.0 170.3 970 50 4 Image Chart
1984 9 16 00 30.1 168.9 970 70 5 Image Chart
1984 9 16 06 31.0 167.3 970 70 5 Image Chart
1984 9 16 12 31.4 166.3 970 70 5 Image Chart
1984 9 16 18 31.7 165.6 965 70 5 Image Chart
1984 9 17 00 32.2 165.3 970 60 4 Image Chart
1984 9 17 06 32.8 166.0 970 60 4 Image Chart
1984 9 17 12 33.7 167.0 975 50 4 Image Chart
1984 9 17 18 34.7 168.0 975 50 4 Image Chart
1984 9 18 00 35.8 169.0 980 50 4 Image Chart
1984 9 18 06 37.0 171.0 985 50 4 Image Chart
1984 9 18 12 38.2 173.5 985 50 4 Image Chart
1984 9 18 18 39.3 176.2 985 50 4 Image Chart
1984 9 19 00 40.5 179.5 985 50 4 Image Chart
Japan Meteorological Agency Best Track Data | Correction Date : 1992-10-21
< Typhoon 198412 1984 Season Typhoon 198414 >

Help